sensor_id;sensor_type;location;lat;lon;timestamp;pressure;altitude;pressure_sealevel;temperature;humidity
23253;BME280;11795;47.054;15.408;2023-04-29T08:10:00;97140;;;20.1;50.5
23253;BME280;11795;47.054;15.408;2023-04-29T08:14:00;97140;;;20.3;48.2
23253;BME280;11795;47.054;15.408;2023-04-29T08:16:00;97140;;;20.0;48.0
23253;BME280;11795;47.054;15.408;2023-04-29T08:18:01;97130;;;20.4;47.4
23253;BME280;11795;47.054;15.408;2023-04-29T08:20:00;97130;;;20.5;47.9
23253;BME280;11795;47.054;15.408;2023-04-29T08:22:01;97130;;;20.8;47.6
23253;BME280;11795;47.054;15.408;2023-04-29T08:24:00;97130;;;20.6;47.3
23253;BME280;11795;47.054;15.408;2023-04-29T08:26:02;97130;;;20.4;47.2
23253;BME280;11795;47.054;15.408;2023-04-29T08:28:00;97140;;;20.3;48.0
23253;BME280;11795;47.054;15.408;2023-04-29T08:30:00;97140;;;20.1;48.7
23253;BME280;11795;47.054;15.408;2023-04-29T08:32:00;97140;;;20.1;47.7
23253;BME280;11795;47.054;15.408;2023-04-29T08:34:00;97140;;;19.9;48.3
23253;BME280;11795;47.054;15.408;2023-04-29T08:36:03;97140;;;19.8;48.5
23253;BME280;11795;47.054;15.408;2023-04-29T08:38:00;97150;;;19.9;47.9
23253;BME280;11795;47.054;15.408;2023-04-29T08:40:00;97150;;;19.7;48.6
23253;BME280;11795;47.054;15.408;2023-04-29T08:42:07;97150;;;19.8;48.4
23253;BME280;11795;47.054;15.408;2023-04-29T08:44:00;97150;;;19.6;49.2
23253;BME280;11795;47.054;15.408;2023-04-29T08:46:01;97150;;;19.6;49.1
23253;BME280;11795;47.054;15.408;2023-04-29T08:48:01;97150;;;19.4;48.7
23253;BME280;11795;47.054;15.408;2023-04-29T08:50:03;97150;;;19.4;49.2
23253;BME280;11795;47.054;15.408;2023-04-29T08:52:02;97150;;;19.6;48.8
23253;BME280;11795;47.054;15.408;2023-04-29T08:54:00;97150;;;19.6;48.5
23253;BME280;11795;47.054;15.408;2023-04-29T08:56:07;97150;;;19.6;47.7
23253;BME280;11795;47.054;15.408;2023-04-29T08:58:01;97150;;;19.8;47.5
23253;BME280;11795;47.054;15.408;2023-04-29T09:00:01;97150;;;20.2;48.0
23253;BME280;11795;47.054;15.408;2023-04-29T09:02:01;97140;;;20.8;47.5
23253;BME280;11795;47.054;15.408;2023-04-29T09:04:07;97150;;;21.1;47.6
23253;BME280;11795;47.054;15.408;2023-04-29T09:06:00;97140;;;21.5;46.2
23253;BME280;11795;47.054;15.408;2023-04-29T09:08:03;97150;;;21.7;44.8
23253;BME280;11795;47.054;15.408;2023-04-29T09:10:01;97150;;;21.8;44.7
23253;BME280;11795;47.054;15.408;2023-04-29T09:12:00;97150;;;21.9;43.1
23253;BME280;11795;47.054;15.408;2023-04-29T09:14:01;97140;;;21.9;44.6
23253;BME280;11795;47.054;15.408;2023-04-29T09:16:00;97130;;;22.0;45.0
23253;BME280;11795;47.054;15.408;2023-04-29T09:18:00;97130;;;22.1;43.6
23253;BME280;11795;47.054;15.408;2023-04-29T09:20:00;97130;;;21.8;43.3
23253;BME280;11795;47.054;15.408;2023-04-29T09:22:01;97130;;;22.0;43.7
23253;BME280;11795;47.054;15.408;2023-04-29T09:24:02;97130;;;21.9;43.6
23253;BME280;11795;47.054;15.408;2023-04-29T09:26:00;97130;;;21.7;43.7
23253;BME280;11795;47.054;15.408;2023-04-29T09:28:13;97130;;;21.6;44.4
23253;BME280;11795;47.054;15.408;2023-04-29T09:30:00;97130;;;21.5;44.0
23253;BME280;11795;47.054;15.408;2023-04-29T09:32:17;97130;;;21.6;43.6
23253;BME280;11795;47.054;15.408;2023-04-29T09:34:00;97120;;;21.4;43.9
23253;BME280;11795;47.054;15.408;2023-04-29T09:36:00;97120;;;21.5;44.6
23253;BME280;11795;47.054;15.408;2023-04-29T09:38:09;97120;;;21.9;43.4
23253;BME280;11795;47.054;15.408;2023-04-29T09:40:01;97110;;;22.0;44.3
23253;BME280;11795;47.054;15.408;2023-04-29T09:42:01;97110;;;22.1;43.8
23253;BME280;11795;47.054;15.408;2023-04-29T09:44:02;97110;;;22.1;44.0
23253;BME280;11795;47.054;15.408;2023-04-29T09:46:01;97110;;;22.0;43.0
23253;BME280;11795;47.054;15.408;2023-04-29T09:48:00;97110;;;22.0;43.3
23253;BME280;11795;47.054;15.408;2023-04-29T09:50:10;97110;;;22.0;43.4
23253;BME280;11795;47.054;15.408;2023-04-29T09:52:02;97110;;;22.0;42.0
23253;BME280;11795;47.054;15.408;2023-04-29T09:54:19;97110;;;21.8;42.8
23253;BME280;11795;47.054;15.408;2023-04-29T09:56:01;97110;;;21.9;42.7
23253;BME280;11795;47.054;15.408;2023-04-29T09:58:01;97100;;;22.3;43.2
23253;BME280;11795;47.054;15.408;2023-04-29T10:00:00;97100;;;22.1;42.1
23253;BME280;11795;47.054;15.408;2023-04-29T10:02:01;97100;;;22.6;42.6
23253;BME280;11795;47.054;15.408;2023-04-29T10:04:01;97100;;;22.8;41.7
23253;BME280;11795;47.054;15.408;2023-04-29T10:06:02;97100;;;22.7;40.7
23253;BME280;11795;47.054;15.408;2023-04-29T10:08:00;97100;;;22.2;41.7
23253;BME280;11795;47.054;15.408;2023-04-29T10:10:01;97100;;;21.9;42.8
23253;BME280;11795;47.054;15.408;2023-04-29T10:12:04;97110;;;21.7;43.0
23253;BME280;11795;47.054;15.408;2023-04-29T10:14:02;97100;;;21.5;42.1
23253;BME280;11795;47.054;15.408;2023-04-29T10:16:10;97100;;;21.5;42.6
23253;BME280;11795;47.054;15.408;2023-04-29T10:18:08;97100;;;21.6;42.8
23253;BME280;11795;47.054;15.408;2023-04-29T10:20:02;97090;;;21.6;42.4
23253;BME280;11795;47.054;15.408;2023-04-29T10:22:06;97090;;;21.9;43.2
23253;BME280;11795;47.054;15.408;2023-04-29T10:24:00;97090;;;22.3;43.4
23253;BME280;11795;47.054;15.408;2023-04-29T10:26:01;97080;;;22.6;42.8
23253;BME280;11795;47.054;15.408;2023-04-29T10:28:02;97080;;;23.1;41.7
23253;BME280;11795;47.054;15.408;2023-04-29T10:30:01;97080;;;23.2;40.1
23253;BME280;11795;47.054;15.408;2023-04-29T10:32:00;97070;;;23.3;40.1
23253;BME280;11795;47.054;15.408;2023-04-29T10:34:00;97070;;;22.7;41.5
23253;BME280;11795;47.054;15.408;2023-04-29T10:36:01;97070;;;22.3;41.3
23253;BME280;11795;47.054;15.408;2023-04-29T10:38:05;97070;;;22.3;42.4
23253;BME280;11795;47.054;15.408;2023-04-29T10:40:09;97070;;;22.5;42.4
23253;BME280;11795;47.054;15.408;2023-04-29T10:42:04;97070;;;22.5;41.4
23253;BME280;11795;47.054;15.408;2023-04-29T10:44:00;97070;;;22.5;41.4
23253;BME280;11795;47.054;15.408;2023-04-29T10:46:18;97060;;;22.5;42.0
23253;BME280;11795;47.054;15.408;2023-04-29T10:48:13;97060;;;22.8;42.1
23253;BME280;11795;47.054;15.408;2023-04-29T10:50:01;97060;;;22.7;41.6
23253;BME280;11795;47.054;15.408;2023-04-29T10:52:03;97060;;;22.7;41.9
23253;BME280;11795;47.054;15.408;2023-04-29T10:54:03;97050;;;22.7;42.1
23253;BME280;11795;47.054;15.408;2023-04-29T10:56:07;97050;;;22.6;42.3
23253;BME280;11795;47.054;15.408;2023-04-29T10:58:02;97050;;;22.7;41.2
23253;BME280;11795;47.054;15.408;2023-04-29T11:00:02;97050;;;22.6;42.0
23253;BME280;11795;47.054;15.408;2023-04-29T11:02:00;97060;;;22.6;41.9
23253;BME280;11795;47.054;15.408;2023-04-29T11:04:01;97050;;;22.6;41.7
23253;BME280;11795;47.054;15.408;2023-04-29T11:06:07;97050;;;22.4;42.1
23253;BME280;11795;47.054;15.408;2023-04-29T11:08:08;97050;;;22.5;42.2
23253;BME280;11795;47.054;15.408;2023-04-29T11:10:00;97050;;;22.3;42.1
23253;BME280;11795;47.054;15.408;2023-04-29T11:12:03;97040;;;22.2;43.1
23253;BME280;11795;47.054;15.408;2023-04-29T11:14:01;97040;;;21.9;43.4
23253;BME280;11795;47.054;15.408;2023-04-29T11:16:03;97040;;;21.8;44.5
23253;BME280;11795;47.054;15.408;2023-04-29T11:18:00;97040;;;21.8;45.1
23253;BME280;11795;47.054;15.408;2023-04-29T11:20:00;97040;;;21.6;45.6
23253;BME280;11795;47.054;15.408;2023-04-29T11:22:10;97040;;;21.5;46.2
23253;BME280;11795;47.054;15.408;2023-04-29T11:24:01;97040;;;21.6;46.7
23253;BME280;11795;47.054;15.408;2023-04-29T11:26:00;97030;;;21.5;45.5
23253;BME280;11795;47.054;15.408;2023-04-29T11:28:01;97030;;;21.8;45.4
23253;BME280;11795;47.054;15.408;2023-04-29T11:30:02;97030;;;21.6;45.0
23253;BME280;11795;47.054;15.408;2023-04-29T11:32:00;97030;;;21.6;44.7
23253;BME280;11795;47.054;15.408;2023-04-29T11:34:03;97020;;;21.7;44.0
23253;BME280;11795;47.054;15.408;2023-04-29T11:36:01;97020;;;21.9;44.3
23253;BME280;11795;47.054;15.408;2023-04-29T11:38:03;97020;;;22.4;43.6
23253;BME280;11795;47.054;15.408;2023-04-29T11:40:01;97020;;;22.5;43.6
23253;BME280;11795;47.054;15.408;2023-04-29T11:42:03;97020;;;22.6;44.0
23253;BME280;11795;47.054;15.408;2023-04-29T11:44:02;97010;;;22.8;43.1
23253;BME280;11795;47.054;15.408;2023-04-29T11:46:00;97010;;;22.7;41.8
23253;BME280;11795;47.054;15.408;2023-04-29T11:48:00;97020;;;22.6;41.7
23253;BME280;11795;47.054;15.408;2023-04-29T11:50:01;97020;;;22.5;41.8
23253;BME280;11795;47.054;15.408;2023-04-29T11:52:00;97020;;;22.4;42.6
23253;BME280;11795;47.054;15.408;2023-04-29T11:54:00;97020;;;22.3;42.3
23253;BME280;11795;47.054;15.408;2023-04-29T11:56:01;97010;;;22.1;42.5
23253;BME280;11795;47.054;15.408;2023-04-29T11:58:03;97010;;;22.1;42.4
23253;BME280;11795;47.054;15.408;2023-04-29T12:00:01;97010;;;22.2;42.7
23253;BME280;11795;47.054;15.408;2023-04-29T12:02:00;97010;;;22.5;43.5
23253;BME280;11795;47.054;15.408;2023-04-29T12:04:01;97000;;;22.9;42.4
23253;BME280;11795;47.054;15.408;2023-04-29T12:06:01;97000;;;23.0;41.5
23253;BME280;11795;47.054;15.408;2023-04-29T12:08:00;96990;;;23.2;39.6
23253;BME280;11795;47.054;15.408;2023-04-29T12:10:00;96990;;;22.8;39.6
23253;BME280;11795;47.054;15.408;2023-04-29T12:12:00;96990;;;22.9;40.1
23253;BME280;11795;47.054;15.408;2023-04-29T12:14:03;96990;;;23.0;39.7
23253;BME280;11795;47.054;15.408;2023-04-29T12:16:01;96990;;;23.0;40.2
23253;BME280;11795;47.054;15.408;2023-04-29T12:18:00;96990;;;23.5;40.3
23253;BME280;11795;47.054;15.408;2023-04-29T12:20:01;96990;;;23.7;39.8
23253;BME280;11795;47.054;15.408;2023-04-29T12:22:02;96990;;;23.9;38.8
23253;BME280;11795;47.054;15.408;2023-04-29T12:24:01;96990;;;24.0;38.0
23253;BME280;11795;47.054;15.408;2023-04-29T12:26:02;96990;;;24.0;38.6
23253;BME280;11795;47.054;15.408;2023-04-29T12:28:00;96990;;;24.2;38.6
23253;BME280;11795;47.054;15.408;2023-04-29T12:30:00;96980;;;24.2;38.7
23253;BME280;11795;47.054;15.408;2023-04-29T12:32:00;96980;;;24.2;39.3
23253;BME280;11795;47.054;15.408;2023-04-29T12:34:02;96980;;;24.4;38.4
23253;BME280;11795;47.054;15.408;2023-04-29T12:36:01;96980;;;24.4;38.2
23253;BME280;11795;47.054;15.408;2023-04-29T12:38:01;96980;;;24.3;38.6
23253;BME280;11795;47.054;15.408;2023-04-29T12:40:00;96980;;;23.9;38.9
23253;BME280;11795;47.054;15.408;2023-04-29T12:42:00;96980;;;23.7;38.6
23253;BME280;11795;47.054;15.408;2023-04-29T12:44:00;96970;;;23.4;38.7
23253;BME280;11795;47.054;15.408;2023-04-29T12:46:01;96970;;;23.2;39.2
23253;BME280;11795;47.054;15.408;2023-04-29T12:48:01;96970;;;23.2;38.5
23253;BME280;11795;47.054;15.408;2023-04-29T12:50:01;96960;;;23.1;39.0
23253;BME280;11795;47.054;15.408;2023-04-29T12:52:01;96960;;;23.0;39.3
23253;BME280;11795;47.054;15.408;2023-04-29T12:54:01;96950;;;23.1;39.3
23253;BME280;11795;47.054;15.408;2023-04-29T12:56:00;96960;;;23.1;39.5
23253;BME280;11795;47.054;15.408;2023-04-29T12:58:01;96950;;;23.3;39.1
23253;BME280;11795;47.054;15.408;2023-04-29T13:00:00;96950;;;23.5;39.5
23253;BME280;11795;47.054;15.408;2023-04-29T13:02:01;96950;;;23.7;39.0
23253;BME280;11795;47.054;15.408;2023-04-29T13:04:00;96950;;;24.1;39.1
23253;BME280;11795;47.054;15.408;2023-04-29T13:06:01;96940;;;24.0;38.1
23253;BME280;11795;47.054;15.408;2023-04-29T13:08:01;96940;;;24.1;37.2
23253;BME280;11795;47.054;15.408;2023-04-29T13:10:01;96940;;;23.8;37.8
23253;BME280;11795;47.054;15.408;2023-04-29T13:12:02;96950;;;23.6;38.5
23253;BME280;11795;47.054;15.408;2023-04-29T13:14:00;96940;;;23.6;38.5
23253;BME280;11795;47.054;15.408;2023-04-29T13:16:00;96950;;;23.3;38.8
23253;BME280;11795;47.054;15.408;2023-04-29T13:18:01;96950;;;23.5;38.9
23253;BME280;11795;47.054;15.408;2023-04-29T13:20:00;96950;;;23.3;39.2
23253;BME280;11795;47.054;15.408;2023-04-29T13:22:00;96940;;;23.2;39.4
23253;BME280;11795;47.054;15.408;2023-04-29T13:24:00;96940;;;23.3;39.2
23253;BME280;11795;47.054;15.408;2023-04-29T13:26:00;96950;;;23.1;39.6
23253;BME280;11795;47.054;15.408;2023-04-29T13:28:00;96950;;;23.1;38.8
23253;BME280;11795;47.054;15.408;2023-04-29T13:30:01;96950;;;22.8;39.5
23253;BME280;11795;47.054;15.408;2023-04-29T13:32:00;96950;;;22.5;40.3
23253;BME280;11795;47.054;15.408;2023-04-29T13:34:00;96950;;;22.6;39.5
23253;BME280;11795;47.054;15.408;2023-04-29T13:36:01;96950;;;22.4;40.1
23253;BME280;11795;47.054;15.408;2023-04-29T13:38:01;96950;;;22.5;40.3
23253;BME280;11795;47.054;15.408;2023-04-29T13:40:00;96950;;;22.4;40.7
23253;BME280;11795;47.054;15.408;2023-04-29T13:42:01;96950;;;22.3;41.2
23253;BME280;11795;47.054;15.408;2023-04-29T13:44:00;96950;;;22.5;40.5
23253;BME280;11795;47.054;15.408;2023-04-29T13:46:01;96940;;;22.4;40.6
23253;BME280;11795;47.054;15.408;2023-04-29T13:48:00;96950;;;22.6;40.6
23253;BME280;11795;47.054;15.408;2023-04-29T13:50:01;96950;;;22.5;40.7
23253;BME280;11795;47.054;15.408;2023-04-29T13:52:00;96950;;;22.4;40.9
23253;BME280;11795;47.054;15.408;2023-04-29T13:54:00;96950;;;22.6;40.4
23253;BME280;11795;47.054;15.408;2023-04-29T13:56:00;96950;;;22.5;40.1
23253;BME280;11795;47.054;15.408;2023-04-29T13:58:01;96960;;;22.5;40.4
23253;BME280;11795;47.054;15.408;2023-04-29T14:00:00;96960;;;22.4;40.0
23253;BME280;11795;47.054;15.408;2023-04-29T14:02:01;96960;;;22.2;40.7
23253;BME280;11795;47.054;15.408;2023-04-29T14:04:00;96950;;;22.2;40.4
23253;BME280;11795;47.054;15.408;2023-04-29T14:06:00;96950;;;21.9;41.1
23253;BME280;11795;47.054;15.408;2023-04-29T14:08:00;96960;;;21.8;41.6
23253;BME280;11795;47.054;15.408;2023-04-29T14:10:01;96970;;;21.6;42.0
23253;BME280;11795;47.054;15.408;2023-04-29T14:12:00;96960;;;21.5;42.7
23253;BME280;11795;47.054;15.408;2023-04-29T14:14:00;96970;;;21.6;42.8
23253;BME280;11795;47.054;15.408;2023-04-29T14:16:02;96970;;;21.4;43.5
23253;BME280;11795;47.054;15.408;2023-04-29T14:18:00;96980;;;21.5;43.6
23253;BME280;11795;47.054;15.408;2023-04-29T14:20:00;96980;;;21.4;44.0
23253;BME280;11795;47.054;15.408;2023-04-29T14:22:00;96980;;;21.4;43.6
23253;BME280;11795;47.054;15.408;2023-04-29T14:24:02;96980;;;21.4;41.7
23253;BME280;11795;47.054;15.408;2023-04-29T14:26:00;96980;;;21.1;41.9
23253;BME280;11795;47.054;15.408;2023-04-29T14:28:00;96980;;;21.0;42.5
23253;BME280;11795;47.054;15.408;2023-04-29T14:30:00;96990;;;20.9;42.6
23253;BME280;11795;47.054;15.408;2023-04-29T14:32:00;96990;;;20.9;42.9
23253;BME280;11795;47.054;15.408;2023-04-29T14:34:00;96990;;;20.7;43.6
23253;BME280;11795;47.054;15.408;2023-04-29T14:36:00;97000;;;20.6;43.9
23253;BME280;11795;47.054;15.408;2023-04-29T14:38:00;97010;;;20.5;45.3
23253;BME280;11795;47.054;15.408;2023-04-29T14:40:00;97010;;;20.4;46.2
23253;BME280;11795;47.054;15.408;2023-04-29T14:42:01;97010;;;20.2;47.8
23253;BME280;11795;47.054;15.408;2023-04-29T14:44:00;97020;;;20.5;47.6
23253;BME280;11795;47.054;15.408;2023-04-29T14:46:00;97020;;;20.5;48.9
23253;BME280;11795;47.054;15.408;2023-04-29T14:48:00;97020;;;20.7;49.3
23253;BME280;11795;47.054;15.408;2023-04-29T14:50:01;97020;;;20.8;50.2
23253;BME280;11795;47.054;15.408;2023-04-29T14:52:01;97020;;;21.0;51.1
23253;BME280;11795;47.054;15.408;2023-04-29T14:54:00;97020;;;21.2;51.6
23253;BME280;11795;47.054;15.408;2023-04-29T14:56:00;97020;;;21.2;52.3
23253;BME280;11795;47.054;15.408;2023-04-29T14:58:04;97020;;;21.3;52.6
23253;BME280;11795;47.054;15.408;2023-04-29T15:00:00;97020;;;21.4;52.6
23253;BME280;11795;47.054;15.408;2023-04-29T15:02:01;97010;;;21.4;53.5
23253;BME280;11795;47.054;15.408;2023-04-29T15:04:00;97010;;;21.8;53.2
23253;BME280;11795;47.054;15.408;2023-04-29T15:06:00;97010;;;21.7;54.1
23253;BME280;11795;47.054;15.408;2023-04-29T15:08:01;97000;;;21.9;54.4
23253;BME280;11795;47.054;15.408;2023-04-29T15:10:01;97000;;;22.0;52.9
23253;BME280;11795;47.054;15.408;2023-04-29T15:12:01;97000;;;22.0;51.7
23253;BME280;11795;47.054;15.408;2023-04-29T15:14:00;97000;;;22.3;51.3
23253;BME280;11795;47.054;15.408;2023-04-29T15:16:00;97000;;;22.0;52.5
23253;BME280;11795;47.054;15.408;2023-04-29T15:18:01;97000;;;22.0;52.8
23253;BME280;11795;47.054;15.408;2023-04-29T15:20:00;96990;;;22.0;52.1
23253;BME280;11795;47.054;15.408;2023-04-29T15:22:00;97000;;;22.0;52.5
23253;BME280;11795;47.054;15.408;2023-04-29T15:24:01;97000;;;22.3;51.2
23253;BME280;11795;47.054;15.408;2023-04-29T15:26:00;97000;;;22.3;49.5
23253;BME280;11795;47.054;15.408;2023-04-29T15:28:01;97000;;;22.3;49.2
23253;BME280;11795;47.054;15.408;2023-04-29T15:30:00;97000;;;22.4;48.0
23253;BME280;11795;47.054;15.408;2023-04-29T15:32:00;97000;;;22.3;48.8
23253;BME280;11795;47.054;15.408;2023-04-29T15:34:01;97000;;;22.6;48.3
23253;BME280;11795;47.054;15.408;2023-04-29T15:36:00;96990;;;22.6;47.6
23253;BME280;11795;47.054;15.408;2023-04-29T15:38:00;96990;;;22.7;46.6
23253;BME280;11795;47.054;15.408;2023-04-29T15:40:00;96990;;;22.8;45.2
23253;BME280;11795;47.054;15.408;2023-04-29T15:42:01;96990;;;22.3;44.0
23253;BME280;11795;47.054;15.408;2023-04-29T15:44:00;96990;;;22.6;44.6
23253;BME280;11795;47.054;15.408;2023-04-29T15:46:00;96980;;;22.6;45.6
23253;BME280;11795;47.054;15.408;2023-04-29T15:48:00;96980;;;22.5;45.6
23253;BME280;11795;47.054;15.408;2023-04-29T15:50:00;96990;;;22.4;45.3
23253;BME280;11795;47.054;15.408;2023-04-29T15:52:00;96980;;;22.3;45.8
23253;BME280;11795;47.054;15.408;2023-04-29T15:54:00;96980;;;22.4;44.9
23253;BME280;11795;47.054;15.408;2023-04-29T15:56:00;96990;;;22.2;45.0
23253;BME280;11795;47.054;15.408;2023-04-29T15:58:00;96980;;;22.1;46.6
23253;BME280;11795;47.054;15.408;2023-04-29T16:00:00;96980;;;22.2;50.6
23253;BME280;11795;47.054;15.408;2023-04-29T16:02:02;96990;;;21.9;52.7
23253;BME280;11795;47.054;15.408;2023-04-29T16:04:01;96990;;;21.9;53.1
23253;BME280;11795;47.054;15.408;2023-04-29T16:06:00;96990;;;21.6;52.6
23253;BME280;11795;47.054;15.408;2023-04-29T16:08:00;96990;;;21.4;53.6
23253;BME280;11795;47.054;15.408;2023-04-29T16:10:00;96990;;;21.3;53.9
23253;BME280;11795;47.054;15.408;2023-04-29T16:12:01;96990;;;21.1;54.5
23253;BME280;11795;47.054;15.408;2023-04-29T16:14:00;96990;;;21.1;54.5
23253;BME280;11795;47.054;15.408;2023-04-29T16:16:01;96990;;;20.7;55.4
23253;BME280;11795;47.054;15.408;2023-04-29T16:18:01;97000;;;20.6;56.0
23253;BME280;11795;47.054;15.408;2023-04-29T16:20:01;96990;;;20.6;56.0
23253;BME280;11795;47.054;15.408;2023-04-29T16:22:00;97000;;;20.5;56.2
23253;BME280;11795;47.054;15.408;2023-04-29T16:24:00;97000;;;20.5;56.1
23253;BME280;11795;47.054;15.408;2023-04-29T16:26:00;97000;;;20.3;56.9
23253;BME280;11795;47.054;15.408;2023-04-29T16:28:01;97010;;;20.1;58.6
23253;BME280;11795;47.054;15.408;2023-04-29T16:30:00;97010;;;20.2;58.2
23253;BME280;11795;47.054;15.408;2023-04-29T16:32:00;97010;;;20.1;58.5
23253;BME280;11795;47.054;15.408;2023-04-29T16:34:02;97020;;;20.3;58.0
23253;BME280;11795;47.054;15.408;2023-04-29T16:36:02;97020;;;20.1;58.7
23253;BME280;11795;47.054;15.408;2023-04-29T16:38:00;97020;;;20.0;59.0
23253;BME280;11795;47.054;15.408;2023-04-29T16:40:00;97020;;;20.2;59.3
23253;BME280;11795;47.054;15.408;2023-04-29T16:42:00;97020;;;20.0;59.1
23253;BME280;11795;47.054;15.408;2023-04-29T16:44:00;97030;;;20.2;58.5
23253;BME280;11795;47.054;15.408;2023-04-29T16:46:00;97030;;;20.0;55.6
23253;BME280;11795;47.054;15.408;2023-04-29T16:48:00;97030;;;19.9;53.4
23253;BME280;11795;47.054;15.408;2023-04-29T16:50:00;97030;;;20.0;50.7
23253;BME280;11795;47.054;15.408;2023-04-29T16:52:00;97030;;;19.9;46.7
23253;BME280;11795;47.054;15.408;2023-04-29T16:54:00;97030;;;20.0;45.9
23253;BME280;11795;47.054;15.408;2023-04-29T16:56:00;97040;;;19.9;46.3
23253;BME280;11795;47.054;15.408;2023-04-29T16:58:00;97040;;;19.8;45.6
23253;BME280;11795;47.054;15.408;2023-04-29T17:00:00;97050;;;19.9;45.3
23253;BME280;11795;47.054;15.408;2023-04-29T17:02:02;97040;;;19.7;45.8
23253;BME280;11795;47.054;15.408;2023-04-29T17:04:00;97050;;;19.9;44.7
23253;BME280;11795;47.054;15.408;2023-04-29T17:06:01;97050;;;19.7;45.0
23253;BME280;11795;47.054;15.408;2023-04-29T17:08:03;97060;;;19.7;45.2
23253;BME280;11795;47.054;15.408;2023-04-29T17:10:00;97060;;;19.7;45.1
23253;BME280;11795;47.054;15.408;2023-04-29T17:12:03;97060;;;19.6;45.3
23253;BME280;11795;47.054;15.408;2023-04-29T17:14:00;97070;;;19.8;45.1
23253;BME280;11795;47.054;15.408;2023-04-29T17:16:00;97060;;;19.7;45.3
23253;BME280;11795;47.054;15.408;2023-04-29T17:18:00;97070;;;19.5;45.8
23253;BME280;11795;47.054;15.408;2023-04-29T17:20:00;97070;;;19.7;45.7
23253;BME280;11795;47.054;15.408;2023-04-29T17:22:01;97070;;;19.6;46.8
23253;BME280;11795;47.054;15.408;2023-04-29T17:24:00;97080;;;19.7;48.1
23253;BME280;11795;47.054;15.408;2023-04-29T17:26:01;97080;;;19.6;51.9
23253;BME280;11795;47.054;15.408;2023-04-29T17:28:00;97080;;;19.4;52.7
23253;BME280;11795;47.054;15.408;2023-04-29T17:30:00;97080;;;19.4;52.9
23253;BME280;11795;47.054;15.408;2023-04-29T17:32:02;97080;;;19.2;53.6
23253;BME280;11795;47.054;15.408;2023-04-29T17:34:07;97090;;;19.4;52.4
23253;BME280;11795;47.054;15.408;2023-04-29T17:36:01;97090;;;19.2;51.7
23253;BME280;11795;47.054;15.408;2023-04-29T17:38:00;97100;;;19.1;51.3
23253;BME280;11795;47.054;15.408;2023-04-29T17:40:01;97100;;;19.2;50.5
23253;BME280;11795;47.054;15.408;2023-04-29T17:42:00;97100;;;19.1;50.7
23253;BME280;11795;47.054;15.408;2023-04-29T17:44:00;97100;;;19.2;50.6
23253;BME280;11795;47.054;15.408;2023-04-29T17:46:00;97100;;;19.1;50.9
23253;BME280;11795;47.054;15.408;2023-04-29T17:48:00;97110;;;19.0;51.1
23253;BME280;11795;47.054;15.408;2023-04-29T17:50:01;97110;;;19.2;50.2
23253;BME280;11795;47.054;15.408;2023-04-29T17:52:03;97110;;;19.1;53.6
23253;BME280;11795;47.054;15.408;2023-04-29T17:54:01;97120;;;19.1;55.0
23253;BME280;11795;47.054;15.408;2023-04-29T17:56:00;97120;;;18.8;56.1
23253;BME280;11795;47.054;15.408;2023-04-29T17:58:00;97120;;;18.7;57.6
23253;BME280;11795;47.054;15.408;2023-04-29T18:00:01;97120;;;18.7;58.4
23253;BME280;11795;47.054;15.408;2023-04-29T18:02:00;97130;;;18.4;60.0
23253;BME280;11795;47.054;15.408;2023-04-29T18:04:01;97130;;;18.6;59.4
23253;BME280;11795;47.054;15.408;2023-04-29T18:06:00;97130;;;18.4;59.7
23253;BME280;11795;47.054;15.408;2023-04-29T18:08:00;97130;;;18.4;60.5
23253;BME280;11795;47.054;15.408;2023-04-29T18:10:00;97130;;;18.5;60.2
23253;BME280;11795;47.054;15.408;2023-04-29T18:12:01;97130;;;18.3;60.8
23253;BME280;11795;47.054;15.408;2023-04-29T18:14:00;97130;;;18.4;59.8
23253;BME280;11795;47.054;15.408;2023-04-29T18:16:00;97140;;;18.1;60.5
23253;BME280;11795;47.054;15.408;2023-04-29T18:18:00;97140;;;18.0;61.1
23253;BME280;11795;47.054;15.408;2023-04-29T18:20:01;97140;;;18.1;60.9
23253;BME280;11795;47.054;15.408;2023-04-29T18:22:01;97140;;;18.0;61.5
23253;BME280;11795;47.054;15.408;2023-04-29T18:24:01;97140;;;18.0;60.7
23253;BME280;11795;47.054;15.408;2023-04-29T18:26:00;97150;;;17.8;61.5
23253;BME280;11795;47.054;15.408;2023-04-29T18:28:00;97150;;;17.6;62.3
23253;BME280;11795;47.054;15.408;2023-04-29T18:30:00;97140;;;17.7;61.9
23253;BME280;11795;47.054;15.408;2023-04-29T18:32:00;97140;;;17.6;62.2
23253;BME280;11795;47.054;15.408;2023-04-29T18:34:00;97140;;;17.6;62.4
23253;BME280;11795;47.054;15.408;2023-04-29T18:36:01;97150;;;17.4;63.0
23253;BME280;11795;47.054;15.408;2023-04-29T18:38:01;97150;;;17.3;63.5
23253;BME280;11795;47.054;15.408;2023-04-29T18:40:00;97160;;;17.4;63.1
23253;BME280;11795;47.054;15.408;2023-04-29T18:42:02;97160;;;17.2;63.8
23253;BME280;11795;47.054;15.408;2023-04-29T18:44:00;97160;;;17.4;63.6
23253;BME280;11795;47.054;15.408;2023-04-29T18:46:01;97180;;;17.3;63.8
23253;BME280;11795;47.054;15.408;2023-04-29T18:48:04;97170;;;17.2;64.1
23253;BME280;11795;47.054;15.408;2023-04-29T18:50:01;97170;;;17.3;63.9
23253;BME280;11795;47.054;15.408;2023-04-29T18:52:00;97170;;;17.2;64.4
23253;BME280;11795;47.054;15.408;2023-04-29T18:54:00;97170;;;17.2;64.6
23253;BME280;11795;47.054;15.408;2023-04-29T18:56:00;97170;;;17.1;64.8
23253;BME280;11795;47.054;15.408;2023-04-29T18:58:00;97170;;;17.0;65.3
23253;BME280;11795;47.054;15.408;2023-04-29T19:00:01;97170;;;17.1;65.0
23253;BME280;11795;47.054;15.408;2023-04-29T19:02:00;97170;;;16.9;65.5
23253;BME280;11795;47.054;15.408;2023-04-29T19:04:03;97180;;;17.0;65.4
23253;BME280;11795;47.054;15.408;2023-04-29T19:06:00;97180;;;16.9;65.3
23253;BME280;11795;47.054;15.408;2023-04-29T19:08:00;97180;;;16.8;65.9
23253;BME280;11795;47.054;15.408;2023-04-29T19:10:02;97190;;;16.9;65.7
23253;BME280;11795;47.054;15.408;2023-04-29T19:12:03;97190;;;16.6;66.4
23253;BME280;11795;47.054;15.408;2023-04-29T19:14:00;97190;;;16.7;66.3
23253;BME280;11795;47.054;15.408;2023-04-29T19:16:00;97190;;;16.6;66.4
23253;BME280;11795;47.054;15.408;2023-04-29T19:18:00;97200;;;16.5;67.0
23253;BME280;11795;47.054;15.408;2023-04-29T19:20:03;97200;;;16.5;67.5
23253;BME280;11795;47.054;15.408;2023-04-29T19:22:00;97200;;;16.2;68.8